JZR241 OKKK-OEMA
Flight info
| Callsign | JZR241 |
|---|---|
| Flight time | 1h 38m |
| Altitude | 38000 |
| Route | NIDAP L550 BOSID B417 GAS G674 EMURI |
| Aircraft | A20N/M-SDE2E3FGHIRWXY/LB1 |
Departure
| Time | 2026-04-23 20:36 |
|---|---|
| Airport | Kuwait International Airport (OKKK) |
Arrival
| Time | 2026-04-23 22:15 |
|---|---|
| Airport | Prince Mohammad Bin Abdulaziz Airport (OEMA) |
| Time | Latitude | Longitude | Altitude | Speed | Heading |
|---|---|---|---|---|---|
| 2026-04-23 20:02 | 29.23544 | 47.96916 | 158 ft | 0 kts | 157° |
| 2026-04-23 20:24 | 29.23547 | 47.96915 | 161 ft | 3 kts | 157° |
| 2026-04-23 20:24 | 29.23572 | 47.96905 | 160 ft | 4 kts | 168° |
| 2026-04-23 20:24 | 29.23598 | 47.96901 | 158 ft | 3 kts | 176° |
| 2026-04-23 20:24 | 29.23603 | 47.96900 | 158 ft | 0 kts | 176° |
| 2026-04-23 20:29 | 29.23583 | 47.96878 | 159 ft | 7 kts | 238° |
| 2026-04-23 20:29 | 29.23561 | 47.96822 | 160 ft | 9 kts | 244° |
| 2026-04-23 20:29 | 29.23533 | 47.96745 | 161 ft | 9 kts | 264° |
| 2026-04-23 20:29 | 29.23519 | 47.96691 | 161 ft | 6 kts | 206° |
| 2026-04-23 20:30 | 29.23487 | 47.96703 | 161 ft | 6 kts | 154° |
| 2026-04-23 20:30 | 29.23340 | 47.96780 | 163 ft | 17 kts | 156° |
| 2026-04-23 20:30 | 29.23220 | 47.96844 | 165 ft | 21 kts | 154° |
| 2026-04-23 20:31 | 29.23079 | 47.96918 | 167 ft | 22 kts | 156° |
| 2026-04-23 20:31 | 29.22945 | 47.96987 | 169 ft | 20 kts | 155° |
| 2026-04-23 20:31 | 29.22821 | 47.97053 | 171 ft | 19 kts | 155° |
| 2026-04-23 20:31 | 29.22708 | 47.97114 | 173 ft | 17 kts | 156° |
| 2026-04-23 20:32 | 29.22594 | 47.97175 | 174 ft | 17 kts | 154° |
| 2026-04-23 20:32 | 29.22493 | 47.97227 | 176 ft | 15 kts | 154° |
| 2026-04-23 20:32 | 29.22403 | 47.97277 | 177 ft | 16 kts | 154° |
| 2026-04-23 20:32 | 29.22304 | 47.97328 | 179 ft | 15 kts | 155° |
| 2026-04-23 20:33 | 29.22198 | 47.97384 | 180 ft | 17 kts | 155° |
| 2026-04-23 20:33 | 29.22085 | 47.97444 | 182 ft | 19 kts | 155° |
| 2026-04-23 20:33 | 29.21966 | 47.97509 | 183 ft | 19 kts | 154° |
| 2026-04-23 20:33 | 29.21840 | 47.97577 | 190 ft | 20 kts | 158° |
| 2026-04-23 20:34 | 29.21710 | 47.97641 | 195 ft | 20 kts | 152° |
| 2026-04-23 20:34 | 29.21583 | 47.97712 | 189 ft | 21 kts | 154° |
| 2026-04-23 20:34 | 29.21450 | 47.97782 | 199 ft | 22 kts | 158° |
| 2026-04-23 20:34 | 29.21300 | 47.97849 | 199 ft | 23 kts | 175° |
| 2026-04-23 20:35 | 29.21243 | 47.97750 | 194 ft | 15 kts | 290° |
| 2026-04-23 20:35 | 29.21301 | 47.97647 | 197 ft | 16 kts | 303° |
| 2026-04-23 20:35 | 29.21385 | 47.97568 | 193 ft | 16 kts | 337° |
| 2026-04-23 20:35 | 29.21547 | 47.97482 | 197 ft | 53 kts | 335° |
| 2026-04-23 20:36 | 29.22128 | 47.97176 | 181 ft | 132 kts | 334° |
| 2026-04-23 20:36 | 29.23094 | 47.96650 | 620 ft | 156 kts | 336° |
| 2026-04-23 20:36 | 29.24058 | 47.96146 | 1598 ft | 149 kts | 339° |
| 2026-04-23 20:36 | 29.25009 | 47.95705 | 2560 ft | 145 kts | 341° |
| 2026-04-23 20:37 | 29.25956 | 47.95353 | 3434 ft | 142 kts | 345° |
| 2026-04-23 20:37 | 29.26870 | 47.94809 | 3942 ft | 162 kts | 314° |
| 2026-04-23 20:37 | 29.27288 | 47.93541 | 4197 ft | 189 kts | 266° |
| 2026-04-23 20:37 | 29.26697 | 47.92122 | 4459 ft | 213 kts | 228° |
| 2026-04-23 20:38 | 29.25465 | 47.91085 | 4883 ft | 226 kts | 210° |
| 2026-04-23 20:38 | 29.23996 | 47.90366 | 5414 ft | 235 kts | 201° |
| 2026-04-23 20:38 | 29.22390 | 47.89751 | 5822 ft | 250 kts | 199° |
| 2026-04-23 20:38 | 29.20674 | 47.89108 | 6198 ft | 270 kts | 200° |
| 2026-04-23 20:39 | 29.18866 | 47.88369 | 6845 ft | 278 kts | 202° |
| 2026-04-23 20:39 | 29.17060 | 47.87563 | 7713 ft | 279 kts | 204° |
| 2026-04-23 20:39 | 29.15265 | 47.86710 | 8618 ft | 279 kts | 205° |
| 2026-04-23 20:39 | 29.13482 | 47.85829 | 9568 ft | 280 kts | 206° |
| 2026-04-23 20:40 | 29.11688 | 47.84926 | 10378 ft | 286 kts | 206° |
| 2026-04-23 20:40 | 29.09808 | 47.83970 | 10767 ft | 307 kts | 206° |
| 2026-04-23 20:40 | 29.07786 | 47.82940 | 11128 ft | 327 kts | 206° |
| 2026-04-23 20:40 | 29.05667 | 47.81868 | 11723 ft | 337 kts | 206° |
| 2026-04-23 20:41 | 29.03529 | 47.80795 | 12460 ft | 343 kts | 206° |
| 2026-04-23 20:41 | 29.01328 | 47.79695 | 13239 ft | 348 kts | 206° |
| 2026-04-23 20:41 | 28.99099 | 47.78582 | 14019 ft | 352 kts | 206° |
| 2026-04-23 20:41 | 28.96849 | 47.77460 | 14760 ft | 354 kts | 207° |
| 2026-04-23 20:42 | 28.94594 | 47.76335 | 15537 ft | 354 kts | 207° |
| 2026-04-23 20:42 | 28.92334 | 47.75209 | 16347 ft | 354 kts | 208° |
| 2026-04-23 20:42 | 28.90076 | 47.74084 | 17203 ft | 354 kts | 208° |
| 2026-04-23 20:42 | 28.87819 | 47.72958 | 17987 ft | 355 kts | 209° |
| 2026-04-23 20:43 | 28.85552 | 47.71827 | 18689 ft | 356 kts | 209° |
| 2026-04-23 20:43 | 28.83283 | 47.70695 | 19366 ft | 356 kts | 209° |
| 2026-04-23 20:43 | 28.81015 | 47.69564 | 20071 ft | 356 kts | 209° |
| 2026-04-23 20:43 | 28.78746 | 47.68434 | 20761 ft | 356 kts | 209° |
| 2026-04-23 20:44 | 28.76474 | 47.67303 | 21423 ft | 356 kts | 208° |
| 2026-04-23 20:44 | 28.74211 | 47.66153 | 22079 ft | 356 kts | 211° |
| 2026-04-23 20:44 | 28.72064 | 47.64767 | 22703 ft | 353 kts | 217° |
| 2026-04-23 20:44 | 28.70137 | 47.63057 | 23301 ft | 352 kts | 225° |
| 2026-04-23 20:45 | 28.68500 | 47.60990 | 23822 ft | 351 kts | 234° |
| 2026-04-23 20:45 | 28.67232 | 47.58609 | 24242 ft | 354 kts | 243° |
| 2026-04-23 20:45 | 28.66346 | 47.55975 | 24647 ft | 359 kts | 252° |
| 2026-04-23 20:45 | 28.65872 | 47.53161 | 25072 ft | 365 kts | 261° |
| 2026-04-23 20:46 | 28.65828 | 47.50255 | 25518 ft | 371 kts | 268° |
| 2026-04-23 20:46 | 28.66006 | 47.47315 | 25967 ft | 373 kts | 270° |
| 2026-04-23 20:46 | 28.66251 | 47.44367 | 26408 ft | 375 kts | 270° |
| 2026-04-23 20:46 | 28.66522 | 47.41409 | 26839 ft | 377 kts | 271° |
| 2026-04-23 20:47 | 28.66797 | 47.38439 | 27272 ft | 378 kts | 271° |
| 2026-04-23 20:47 | 28.67066 | 47.35456 | 27697 ft | 379 kts | 271° |
| 2026-04-23 20:47 | 28.67327 | 47.32466 | 28100 ft | 380 kts | 271° |
| 2026-04-23 20:47 | 28.67580 | 47.29465 | 28480 ft | 382 kts | 271° |
| 2026-04-23 20:48 | 28.67828 | 47.26454 | 28856 ft | 383 kts | 271° |
| 2026-04-23 20:48 | 28.68075 | 47.23423 | 29220 ft | 385 kts | 271° |
| 2026-04-23 20:48 | 28.68321 | 47.20380 | 29573 ft | 386 kts | 271° |
| 2026-04-23 20:48 | 28.68566 | 47.17330 | 29935 ft | 388 kts | 271° |
| 2026-04-23 20:49 | 28.68812 | 47.14291 | 30501 ft | 382 kts | 271° |
| 2026-04-23 20:49 | 28.69055 | 47.11308 | 31096 ft | 377 kts | 270° |
| 2026-04-23 20:49 | 28.69295 | 47.08339 | 31530 ft | 375 kts | 270° |
| 2026-04-23 20:49 | 28.69530 | 47.05405 | 32073 ft | 370 kts | 270° |
| 2026-04-23 20:50 | 28.69762 | 47.02513 | 32669 ft | 363 kts | 270° |
| 2026-04-23 20:50 | 28.69990 | 46.99674 | 33256 ft | 357 kts | 270° |
| 2026-04-23 20:50 | 28.70212 | 46.96881 | 33812 ft | 351 kts | 270° |
| 2026-04-23 20:50 | 28.70428 | 46.94131 | 34279 ft | 346 kts | 270° |
| 2026-04-23 20:51 | 28.70500 | 46.91405 | 34534 ft | 344 kts | 265° |
| 2026-04-23 20:51 | 28.70308 | 46.88697 | 34700 ft | 345 kts | 260° |
| 2026-04-23 20:51 | 28.69816 | 46.86013 | 34889 ft | 346 kts | 255° |
| 2026-04-23 20:51 | 28.69017 | 46.83428 | 35103 ft | 348 kts | 249° |
| 2026-04-23 20:52 | 28.67986 | 46.80929 | 35330 ft | 349 kts | 246° |
| 2026-04-23 20:52 | 28.66883 | 46.78465 | 35541 ft | 350 kts | 246° |
| 2026-04-23 20:52 | 28.65759 | 46.76047 | 35763 ft | 350 kts | 245° |
| 2026-04-23 20:52 | 28.64606 | 46.73603 | 35975 ft | 351 kts | 245° |
| 2026-04-23 20:53 | 28.63451 | 46.71156 | 36180 ft | 351 kts | 245° |
| 2026-04-23 20:53 | 28.62299 | 46.68706 | 36376 ft | 352 kts | 245° |
| 2026-04-23 20:53 | 28.61152 | 46.66250 | 36566 ft | 352 kts | 245° |
| 2026-04-23 20:53 | 28.60005 | 46.63787 | 36778 ft | 352 kts | 246° |
| 2026-04-23 20:54 | 28.58859 | 46.61320 | 36965 ft | 352 kts | 246° |
| 2026-04-23 20:54 | 28.57715 | 46.58854 | 37166 ft | 353 kts | 246° |
| 2026-04-23 20:54 | 28.56570 | 46.56386 | 37335 ft | 353 kts | 246° |
| 2026-04-23 20:54 | 28.55423 | 46.53915 | 37529 ft | 353 kts | 246° |
| 2026-04-23 20:55 | 28.54276 | 46.51447 | 37701 ft | 353 kts | 246° |
| 2026-04-23 20:55 | 28.53128 | 46.48977 | 37888 ft | 354 kts | 246° |
| 2026-04-23 20:55 | 28.51976 | 46.46501 | 37989 ft | 355 kts | 246° |
| 2026-04-23 20:55 | 28.50821 | 46.44020 | 37996 ft | 355 kts | 246° |
| 2026-04-23 20:56 | 28.48512 | 46.39069 | 38003 ft | 354 kts | 246° |
| 2026-04-23 20:56 | 28.46596 | 46.34966 | 38007 ft | 354 kts | 246° |
| 2026-04-23 20:57 | 28.44290 | 46.30029 | 38010 ft | 353 kts | 246° |
| 2026-04-23 20:57 | 28.41983 | 46.25097 | 38014 ft | 353 kts | 246° |
| 2026-04-23 20:58 | 28.39675 | 46.20167 | 38020 ft | 354 kts | 245° |
| 2026-04-23 20:58 | 28.37362 | 46.15235 | 38018 ft | 353 kts | 245° |
| 2026-04-23 20:59 | 28.34616 | 46.10577 | 38020 ft | 359 kts | 236° |
| 2026-04-23 20:59 | 28.31250 | 46.06361 | 38020 ft | 361 kts | 233° |
| 2026-04-23 21:00 | 28.27762 | 46.02247 | 38020 ft | 362 kts | 233° |
| 2026-04-23 21:00 | 28.24260 | 45.98147 | 38016 ft | 362 kts | 233° |
| 2026-04-23 21:01 | 28.20766 | 45.94037 | 38008 ft | 362 kts | 233° |
| 2026-04-23 21:01 | 28.17277 | 45.89920 | 37999 ft | 362 kts | 233° |
| 2026-04-23 21:02 | 28.13795 | 45.85811 | 37999 ft | 362 kts | 233° |
| 2026-04-23 21:02 | 28.10311 | 45.81704 | 37996 ft | 362 kts | 233° |
| 2026-04-23 21:03 | 28.06824 | 45.77599 | 37996 ft | 362 kts | 233° |
| 2026-04-23 21:03 | 28.03335 | 45.73494 | 37993 ft | 362 kts | 233° |
| 2026-04-23 21:04 | 27.99842 | 45.69391 | 37993 ft | 362 kts | 233° |
| 2026-04-23 21:04 | 27.96347 | 45.65289 | 37993 ft | 362 kts | 233° |
| 2026-04-23 21:05 | 27.92849 | 45.61186 | 37990 ft | 362 kts | 232° |
| 2026-04-23 21:05 | 27.89350 | 45.57088 | 37973 ft | 362 kts | 232° |
| 2026-04-23 21:06 | 27.85738 | 45.53072 | 37990 ft | 366 kts | 230° |
| 2026-04-23 21:06 | 27.81978 | 45.49176 | 37990 ft | 367 kts | 229° |
| 2026-04-23 21:07 | 27.78199 | 45.45299 | 37992 ft | 367 kts | 229° |
| 2026-04-23 21:07 | 27.74432 | 45.41412 | 37990 ft | 367 kts | 230° |
| 2026-04-23 21:08 | 27.70671 | 45.37516 | 37989 ft | 367 kts | 230° |
| 2026-04-23 21:08 | 27.66912 | 45.33619 | 37992 ft | 368 kts | 230° |
| 2026-04-23 21:09 | 27.63168 | 45.29742 | 37994 ft | 368 kts | 230° |
| 2026-04-23 21:09 | 27.59400 | 45.25846 | 37993 ft | 368 kts | 230° |
| 2026-04-23 21:10 | 27.55653 | 45.21926 | 37993 ft | 366 kts | 231° |
| 2026-04-23 21:10 | 27.52078 | 45.17847 | 37980 ft | 365 kts | 233° |
| 2026-04-23 21:11 | 27.48557 | 45.13701 | 37992 ft | 367 kts | 233° |
| 2026-04-23 21:11 | 27.45021 | 45.09555 | 37973 ft | 367 kts | 232° |
| 2026-04-23 21:12 | 27.41460 | 45.05412 | 37998 ft | 369 kts | 232° |
| 2026-04-23 21:12 | 27.37884 | 45.01269 | 37989 ft | 369 kts | 232° |
| 2026-04-23 21:13 | 27.34302 | 44.97125 | 37997 ft | 370 kts | 232° |
| 2026-04-23 21:13 | 27.30711 | 44.92972 | 37993 ft | 370 kts | 232° |
| 2026-04-23 21:14 | 27.27120 | 44.88823 | 37991 ft | 370 kts | 232° |
| 2026-04-23 21:14 | 27.23524 | 44.84672 | 37991 ft | 370 kts | 232° |
| 2026-04-23 21:15 | 27.19927 | 44.80523 | 37989 ft | 370 kts | 232° |
| 2026-04-23 21:15 | 27.16330 | 44.76380 | 37990 ft | 370 kts | 232° |
| 2026-04-23 21:16 | 27.12733 | 44.72240 | 37987 ft | 370 kts | 232° |
| 2026-04-23 21:16 | 27.09132 | 44.68100 | 37970 ft | 371 kts | 232° |
| 2026-04-23 21:17 | 27.05509 | 44.63935 | 37984 ft | 374 kts | 232° |
| 2026-04-23 21:17 | 27.01872 | 44.59762 | 37984 ft | 374 kts | 232° |
| 2026-04-23 21:18 | 26.98239 | 44.55601 | 37982 ft | 373 kts | 232° |
| 2026-04-23 21:18 | 26.94634 | 44.51477 | 37959 ft | 373 kts | 232° |
| 2026-04-23 21:19 | 26.90987 | 44.47305 | 37977 ft | 376 kts | 232° |
| 2026-04-23 21:19 | 26.87321 | 44.43118 | 37975 ft | 376 kts | 232° |
| 2026-04-23 21:20 | 26.83655 | 44.38938 | 37974 ft | 376 kts | 232° |
| 2026-04-23 21:20 | 26.79987 | 44.34759 | 37951 ft | 376 kts | 232° |
| 2026-04-23 21:21 | 26.76309 | 44.30569 | 37975 ft | 378 kts | 232° |
| 2026-04-23 21:21 | 26.72617 | 44.26369 | 37971 ft | 379 kts | 232° |
| 2026-04-23 21:22 | 26.68920 | 44.22168 | 37993 ft | 379 kts | 232° |
| 2026-04-23 21:22 | 26.65231 | 44.17982 | 37927 ft | 377 kts | 232° |
| 2026-04-23 21:23 | 26.61553 | 44.13809 | 37962 ft | 378 kts | 232° |
| 2026-04-23 21:23 | 26.57864 | 44.09628 | 37966 ft | 378 kts | 232° |
| 2026-04-23 21:24 | 26.54171 | 44.05448 | 37960 ft | 378 kts | 232° |
| 2026-04-23 21:24 | 26.50481 | 44.01274 | 37965 ft | 378 kts | 232° |
| 2026-04-23 21:25 | 26.46792 | 43.97107 | 37961 ft | 377 kts | 232° |
| 2026-04-23 21:25 | 26.43103 | 43.92942 | 37957 ft | 377 kts | 232° |
| 2026-04-23 21:26 | 26.39411 | 43.88778 | 37958 ft | 377 kts | 232° |
| 2026-04-23 21:26 | 26.35720 | 43.84621 | 37966 ft | 377 kts | 232° |
| 2026-04-23 21:27 | 26.32060 | 43.80482 | 37968 ft | 376 kts | 234° |
| 2026-04-23 21:27 | 26.29044 | 43.75836 | 37962 ft | 366 kts | 246° |
| 2026-04-23 21:28 | 26.26792 | 43.70760 | 37962 ft | 365 kts | 249° |
| 2026-04-23 21:28 | 26.24693 | 43.65613 | 37961 ft | 365 kts | 249° |
| 2026-04-23 21:29 | 26.22610 | 43.60459 | 37958 ft | 364 kts | 249° |
| 2026-04-23 21:29 | 26.20515 | 43.55332 | 37971 ft | 364 kts | 249° |
| 2026-04-23 21:30 | 26.18403 | 43.50198 | 37968 ft | 365 kts | 249° |
| 2026-04-23 21:30 | 26.16286 | 43.45066 | 37954 ft | 365 kts | 249° |
| 2026-04-23 21:31 | 26.14168 | 43.39939 | 37954 ft | 364 kts | 249° |
| 2026-04-23 21:31 | 26.12056 | 43.34832 | 37943 ft | 363 kts | 249° |
| 2026-04-23 21:32 | 26.09945 | 43.29730 | 37927 ft | 363 kts | 249° |
| 2026-04-23 21:32 | 26.07829 | 43.24623 | 37943 ft | 364 kts | 249° |
| 2026-04-23 21:33 | 26.05712 | 43.19522 | 37944 ft | 363 kts | 249° |
| 2026-04-23 21:33 | 26.03600 | 43.14439 | 37950 ft | 361 kts | 249° |
| 2026-04-23 21:34 | 26.01492 | 43.09370 | 37941 ft | 361 kts | 249° |
| 2026-04-23 21:34 | 25.99382 | 43.04302 | 37946 ft | 361 kts | 249° |
| 2026-04-23 21:35 | 25.97268 | 42.99232 | 37937 ft | 361 kts | 249° |
| 2026-04-23 21:35 | 25.95152 | 42.94164 | 37941 ft | 362 kts | 249° |
| 2026-04-23 21:36 | 25.91973 | 42.86562 | 37941 ft | 362 kts | 249° |
| 2026-04-23 21:37 | 25.89867 | 42.81533 | 37940 ft | 362 kts | 249° |
| 2026-04-23 21:37 | 25.87744 | 42.76468 | 37937 ft | 362 kts | 249° |
| 2026-04-23 21:38 | 25.85620 | 42.71407 | 37940 ft | 362 kts | 249° |
| 2026-04-23 21:38 | 25.83493 | 42.66347 | 37934 ft | 362 kts | 249° |
| 2026-04-23 21:39 | 25.81366 | 42.61290 | 37958 ft | 362 kts | 249° |
| 2026-04-23 21:39 | 25.79226 | 42.56213 | 37946 ft | 360 kts | 249° |
| 2026-04-23 21:40 | 25.77123 | 42.51225 | 37930 ft | 359 kts | 249° |
| 2026-04-23 21:40 | 25.75004 | 42.46206 | 37938 ft | 359 kts | 249° |
| 2026-04-23 21:41 | 25.72883 | 42.41187 | 37930 ft | 360 kts | 249° |
| 2026-04-23 21:41 | 25.70757 | 42.36164 | 37940 ft | 359 kts | 249° |
| 2026-04-23 21:42 | 25.68637 | 42.31161 | 37929 ft | 358 kts | 249° |
| 2026-04-23 21:42 | 25.66516 | 42.26159 | 37942 ft | 359 kts | 249° |
| 2026-04-23 21:43 | 25.64391 | 42.21158 | 37936 ft | 359 kts | 248° |
| 2026-04-23 21:43 | 25.62266 | 42.16162 | 37932 ft | 358 kts | 248° |
| 2026-04-23 21:44 | 25.60144 | 42.11179 | 37939 ft | 358 kts | 248° |
| 2026-04-23 21:44 | 25.58376 | 42.07030 | 37928 ft | 358 kts | 248° |
| 2026-04-23 21:45 | 25.56248 | 42.02043 | 37938 ft | 358 kts | 248° |
| 2026-04-23 21:45 | 25.54116 | 41.97052 | 37937 ft | 358 kts | 248° |
| 2026-04-23 21:46 | 25.51987 | 41.92075 | 37932 ft | 357 kts | 248° |
| 2026-04-23 21:46 | 25.49861 | 41.87111 | 37602 ft | 355 kts | 248° |
| 2026-04-23 21:46 | 25.48801 | 41.84640 | 36994 ft | 355 kts | 248° |
| 2026-04-23 21:47 | 25.47744 | 41.82172 | 36469 ft | 357 kts | 248° |
| 2026-04-23 21:47 | 25.46675 | 41.79678 | 35929 ft | 361 kts | 248° |
| 2026-04-23 21:47 | 25.45593 | 41.77152 | 35421 ft | 365 kts | 248° |
| 2026-04-23 21:47 | 25.44503 | 41.74613 | 34900 ft | 367 kts | 248° |
| 2026-04-23 21:48 | 25.43405 | 41.72058 | 34384 ft | 368 kts | 248° |
| 2026-04-23 21:48 | 25.42304 | 41.69499 | 33877 ft | 370 kts | 248° |
| 2026-04-23 21:48 | 25.41195 | 41.66923 | 33306 ft | 372 kts | 248° |
| 2026-04-23 21:48 | 25.40080 | 41.64335 | 32748 ft | 375 kts | 248° |
| 2026-04-23 21:49 | 25.38954 | 41.61719 | 32195 ft | 379 kts | 248° |
| 2026-04-23 21:49 | 25.37815 | 41.59077 | 31669 ft | 383 kts | 248° |
| 2026-04-23 21:49 | 25.36665 | 41.56408 | 31126 ft | 387 kts | 248° |
| 2026-04-23 21:49 | 25.35503 | 41.53715 | 30598 ft | 389 kts | 248° |
| 2026-04-23 21:50 | 25.34338 | 41.51019 | 30090 ft | 389 kts | 248° |
| 2026-04-23 21:50 | 25.33172 | 41.48325 | 29505 ft | 388 kts | 248° |
| 2026-04-23 21:50 | 25.32011 | 41.45642 | 28917 ft | 386 kts | 248° |
| 2026-04-23 21:50 | 25.30855 | 41.42974 | 28343 ft | 383 kts | 248° |
| 2026-04-23 21:51 | 25.29711 | 41.40331 | 27780 ft | 381 kts | 248° |
| 2026-04-23 21:51 | 25.28571 | 41.37702 | 27227 ft | 378 kts | 247° |
| 2026-04-23 21:51 | 25.27439 | 41.35090 | 26687 ft | 376 kts | 247° |
| 2026-04-23 21:51 | 25.26315 | 41.32498 | 26162 ft | 373 kts | 247° |
| 2026-04-23 21:52 | 25.25197 | 41.29920 | 25634 ft | 371 kts | 247° |
| 2026-04-23 21:52 | 25.24086 | 41.27361 | 25122 ft | 368 kts | 246° |
| 2026-04-23 21:52 | 25.22983 | 41.24820 | 24621 ft | 366 kts | 246° |
| 2026-04-23 21:52 | 25.21887 | 41.22299 | 24122 ft | 363 kts | 246° |
| 2026-04-23 21:53 | 25.20791 | 41.19777 | 23636 ft | 370 kts | 246° |
| 2026-04-23 21:53 | 25.19649 | 41.17145 | 23121 ft | 391 kts | 246° |
| 2026-04-23 21:53 | 25.18442 | 41.14364 | 22597 ft | 409 kts | 245° |
| 2026-04-23 21:53 | 25.17201 | 41.11513 | 22087 ft | 413 kts | 245° |
| 2026-04-23 21:54 | 25.15955 | 41.08658 | 21584 ft | 412 kts | 245° |
| 2026-04-23 21:54 | 25.14730 | 41.05854 | 21096 ft | 410 kts | 245° |
| 2026-04-23 21:54 | 25.13478 | 41.02990 | 20603 ft | 408 kts | 245° |
| 2026-04-23 21:54 | 25.12264 | 41.00216 | 20129 ft | 406 kts | 244° |
| 2026-04-23 21:55 | 25.11050 | 40.97418 | 19663 ft | 404 kts | 245° |
| 2026-04-23 21:55 | 25.09891 | 40.94603 | 19189 ft | 402 kts | 246° |
| 2026-04-23 21:55 | 25.08813 | 40.91767 | 18718 ft | 400 kts | 247° |
| 2026-04-23 21:55 | 25.07806 | 40.88914 | 18279 ft | 398 kts | 248° |
| 2026-04-23 21:56 | 25.06823 | 40.86066 | 17762 ft | 397 kts | 248° |
| 2026-04-23 21:56 | 25.05844 | 40.83222 | 17251 ft | 395 kts | 248° |
| 2026-04-23 21:56 | 25.04871 | 40.80395 | 16743 ft | 394 kts | 248° |
| 2026-04-23 21:56 | 25.03899 | 40.77575 | 16258 ft | 392 kts | 248° |
| 2026-04-23 21:57 | 25.02932 | 40.74769 | 15760 ft | 391 kts | 248° |
| 2026-04-23 21:57 | 25.01970 | 40.71984 | 15280 ft | 389 kts | 248° |
| 2026-04-23 21:57 | 25.01007 | 40.69195 | 14808 ft | 387 kts | 248° |
| 2026-04-23 21:57 | 25.00050 | 40.66426 | 14343 ft | 386 kts | 248° |
| 2026-04-23 21:58 | 24.99094 | 40.63662 | 13885 ft | 385 kts | 248° |
| 2026-04-23 21:58 | 24.98142 | 40.60913 | 13394 ft | 384 kts | 248° |
| 2026-04-23 21:58 | 24.97196 | 40.58181 | 12873 ft | 378 kts | 248° |
| 2026-04-23 21:58 | 24.96272 | 40.55513 | 12371 ft | 368 kts | 247° |
| 2026-04-23 21:59 | 24.95371 | 40.52911 | 11875 ft | 359 kts | 247° |
| 2026-04-23 21:59 | 24.94490 | 40.50370 | 11381 ft | 351 kts | 247° |
| 2026-04-23 21:59 | 24.93629 | 40.47891 | 11020 ft | 340 kts | 247° |
| 2026-04-23 22:00 | 24.92030 | 40.43281 | 10922 ft | 303 kts | 247° |
| 2026-04-23 22:00 | 24.91300 | 40.41176 | 10920 ft | 285 kts | 246° |
| 2026-04-23 22:00 | 24.90607 | 40.39187 | 10919 ft | 274 kts | 246° |
| 2026-04-23 22:00 | 24.89924 | 40.37232 | 10927 ft | 273 kts | 246° |
| 2026-04-23 22:01 | 24.89241 | 40.35277 | 10929 ft | 274 kts | 246° |
| 2026-04-23 22:01 | 24.88557 | 40.33319 | 10928 ft | 274 kts | 246° |
| 2026-04-23 22:01 | 24.87874 | 40.31357 | 10928 ft | 275 kts | 246° |
| 2026-04-23 22:01 | 24.87190 | 40.29394 | 10927 ft | 274 kts | 246° |
| 2026-04-23 22:02 | 24.86504 | 40.27434 | 10929 ft | 274 kts | 246° |
| 2026-04-23 22:02 | 24.85819 | 40.25475 | 10927 ft | 274 kts | 246° |
| 2026-04-23 22:02 | 24.85134 | 40.23515 | 10929 ft | 276 kts | 247° |
| 2026-04-23 22:02 | 24.84444 | 40.21542 | 10926 ft | 276 kts | 247° |
| 2026-04-23 22:03 | 24.83755 | 40.19571 | 10934 ft | 276 kts | 247° |
| 2026-04-23 22:03 | 24.83067 | 40.17603 | 10931 ft | 275 kts | 247° |
| 2026-04-23 22:03 | 24.82378 | 40.15637 | 10928 ft | 275 kts | 247° |
| 2026-04-23 22:03 | 24.81691 | 40.13675 | 10924 ft | 275 kts | 247° |
| 2026-04-23 22:04 | 24.81002 | 40.11709 | 10930 ft | 275 kts | 246° |
| 2026-04-23 22:04 | 24.80313 | 40.09743 | 10928 ft | 275 kts | 247° |
| 2026-04-23 22:04 | 24.79632 | 40.07804 | 10927 ft | 275 kts | 247° |
| 2026-04-23 22:04 | 24.78943 | 40.05843 | 10927 ft | 275 kts | 246° |
| 2026-04-23 22:05 | 24.78253 | 40.03876 | 10927 ft | 275 kts | 246° |
| 2026-04-23 22:05 | 24.77563 | 40.01913 | 10934 ft | 275 kts | 247° |
| 2026-04-23 22:05 | 24.76871 | 39.99942 | 10924 ft | 276 kts | 247° |
| 2026-04-23 22:05 | 24.76178 | 39.97971 | 10927 ft | 277 kts | 247° |
| 2026-04-23 22:06 | 24.75483 | 39.95996 | 10923 ft | 277 kts | 247° |
| 2026-04-23 22:06 | 24.74787 | 39.94019 | 10930 ft | 277 kts | 247° |
| 2026-04-23 22:06 | 24.74093 | 39.92047 | 10926 ft | 277 kts | 247° |
| 2026-04-23 22:06 | 24.73398 | 39.90074 | 10926 ft | 277 kts | 247° |
| 2026-04-23 22:07 | 24.72702 | 39.88100 | 10927 ft | 276 kts | 247° |
| 2026-04-23 22:07 | 24.72031 | 39.86120 | 10745 ft | 277 kts | 250° |
| 2026-04-23 22:07 | 24.71656 | 39.84051 | 10375 ft | 279 kts | 268° |
| 2026-04-23 22:07 | 24.72123 | 39.81973 | 9988 ft | 287 kts | 293° |
| 2026-04-23 22:08 | 24.73417 | 39.80274 | 9547 ft | 297 kts | 319° |
| 2026-04-23 22:08 | 24.75233 | 39.79170 | 9128 ft | 301 kts | 334° |
| 2026-04-23 22:08 | 24.77230 | 39.78459 | 8753 ft | 302 kts | 342° |
| 2026-04-23 22:08 | 24.79256 | 39.77876 | 8395 ft | 300 kts | 342° |
| 2026-04-23 22:09 | 24.81187 | 39.77083 | 8037 ft | 293 kts | 324° |
| 2026-04-23 22:09 | 24.82606 | 39.75547 | 7697 ft | 284 kts | 298° |
| 2026-04-23 22:09 | 24.83249 | 39.73549 | 7289 ft | 275 kts | 272° |
| 2026-04-23 22:09 | 24.83001 | 39.71509 | 6852 ft | 268 kts | 245° |
| 2026-04-23 22:10 | 24.81975 | 39.69823 | 6486 ft | 265 kts | 227° |
| 2026-04-23 22:10 | 24.80642 | 39.68451 | 6215 ft | 259 kts | 214° |
| 2026-04-23 22:10 | 24.79074 | 39.67581 | 6035 ft | 248 kts | 195° |
| 2026-04-23 22:10 | 24.77396 | 39.67372 | 5895 ft | 239 kts | 180° |
| 2026-04-23 22:11 | 24.75779 | 39.67465 | 5691 ft | 228 kts | 177° |
| 2026-04-23 22:11 | 24.74203 | 39.67621 | 5255 ft | 228 kts | 175° |
| 2026-04-23 22:11 | 24.72623 | 39.67795 | 4785 ft | 229 kts | 174° |
| 2026-04-23 22:11 | 24.71046 | 39.67976 | 4424 ft | 224 kts | 174° |
| 2026-04-23 22:12 | 24.69541 | 39.68151 | 4248 ft | 211 kts | 174° |
| 2026-04-23 22:12 | 24.68120 | 39.68315 | 3921 ft | 202 kts | 174° |
| 2026-04-23 22:12 | 24.66740 | 39.68479 | 3534 ft | 198 kts | 172° |
| 2026-04-23 22:12 | 24.65414 | 39.68703 | 3291 ft | 186 kts | 169° |
| 2026-04-23 22:13 | 24.64183 | 39.68947 | 3153 ft | 177 kts | 168° |
| 2026-04-23 22:13 | 24.62990 | 39.69194 | 3086 ft | 167 kts | 168° |
| 2026-04-23 22:13 | 24.61926 | 39.69411 | 2967 ft | 147 kts | 168° |
| 2026-04-23 22:13 | 24.60959 | 39.69616 | 2785 ft | 140 kts | 167° |
| 2026-04-23 22:14 | 24.60015 | 39.69825 | 2628 ft | 138 kts | 166° |
| 2026-04-23 22:14 | 24.59066 | 39.70024 | 2475 ft | 139 kts | 168° |
| 2026-04-23 22:14 | 24.58117 | 39.70229 | 2264 ft | 138 kts | 167° |
| 2026-04-23 22:14 | 24.57186 | 39.70434 | 2130 ft | 133 kts | 167° |
| 2026-04-23 22:15 | 24.56364 | 39.70618 | 2116 ft | 102 kts | 170° |
| 2026-04-23 22:15 | 24.55846 | 39.70717 | 2114 ft | 49 kts | 170° |
| 2026-04-23 22:15 | 24.55595 | 39.70770 | 2112 ft | 34 kts | 169° |
| 2026-04-23 22:15 | 24.55374 | 39.70830 | 2113 ft | 31 kts | 150° |
| 2026-04-23 22:16 | 24.55222 | 39.70956 | 2112 ft | 20 kts | 133° |
| 2026-04-23 22:16 | 24.55224 | 39.71071 | 2111 ft | 16 kts | 78° |
| 2026-04-23 22:16 | 24.55242 | 39.71185 | 2108 ft | 15 kts | 85° |
| 2026-04-23 22:16 | 24.55220 | 39.71239 | 2108 ft | 0 kts | 154° |
| 2026-04-23 22:17 | 24.55219 | 39.71239 | 2108 ft | 0 kts | 155° |
| 2026-04-23 22:17 | 24.55217 | 39.71239 | 2108 ft | 0 kts | 169° |
| 2026-04-23 22:17 | 24.55197 | 39.71241 | 2108 ft | 6 kts | 175° |
| 2026-04-23 22:17 | 24.55167 | 39.71257 | 2108 ft | 1 kts | 116° |
| 2026-04-23 22:18 | 24.55169 | 39.71261 | 2108 ft | 1 kts | 73° |
| 2026-04-23 22:18 | 24.55176 | 39.71297 | 2108 ft | 8 kts | 80° |
| 2026-04-23 22:18 | 24.55184 | 39.71343 | 2109 ft | 1 kts | 79° |